sensor_id;sensor_type;location;lat;lon;timestamp;P1;durP1;ratioP1;P2;durP2;ratioP2
3050;SDS011;1535;51.098;6.414;2022-11-15T00:00:45;23.37;;;18.50;;
3050;SDS011;1535;51.098;6.414;2022-11-15T00:03:13;27.33;;;18.87;;
3050;SDS011;1535;51.098;6.414;2022-11-15T00:05:41;20.07;;;17.93;;
3050;SDS011;1535;51.098;6.414;2022-11-15T00:08:08;24.60;;;19.33;;
3050;SDS011;1535;51.098;6.414;2022-11-15T00:10:35;23.90;;;19.53;;
3050;SDS011;1535;51.098;6.414;2022-11-15T00:13:04;28.53;;;20.23;;
3050;SDS011;1535;51.098;6.414;2022-11-15T00:15:34;22.43;;;18.10;;
3050;SDS011;1535;51.098;6.414;2022-11-15T00:18:02;26.67;;;19.37;;
3050;SDS011;1535;51.098;6.414;2022-11-15T00:20:30;24.33;;;18.10;;
3050;SDS011;1535;51.098;6.414;2022-11-15T00:22:57;26.10;;;18.60;;
3050;SDS011;1535;51.098;6.414;2022-11-15T00:25:23;20.57;;;17.80;;
3050;SDS011;1535;51.098;6.414;2022-11-15T00:27:50;25.87;;;18.30;;
3050;SDS011;1535;51.098;6.414;2022-11-15T00:30:21;23.30;;;18.47;;
3050;SDS011;1535;51.098;6.414;2022-11-15T00:32:48;22.50;;;17.23;;
3050;SDS011;1535;51.098;6.414;2022-11-15T00:35:17;22.03;;;18.13;;
3050;SDS011;1535;51.098;6.414;2022-11-15T00:37:45;23.80;;;19.00;;
3050;SDS011;1535;51.098;6.414;2022-11-15T00:40:12;24.50;;;18.70;;
3050;SDS011;1535;51.098;6.414;2022-11-15T00:42:40;22.70;;;17.37;;
3050;SDS011;1535;51.098;6.414;2022-11-15T00:45:08;21.20;;;18.10;;
3050;SDS011;1535;51.098;6.414;2022-11-15T00:47:35;28.10;;;18.10;;
3050;SDS011;1535;51.098;6.414;2022-11-15T00:50:02;22.50;;;15.30;;
3050;SDS011;1535;51.098;6.414;2022-11-15T00:52:31;38.63;;;19.00;;
3050;SDS011;1535;51.098;6.414;2022-11-15T00:54:57;20.17;;;17.03;;
3050;SDS011;1535;51.098;6.414;2022-11-15T00:57:24;26.63;;;16.30;;
3050;SDS011;1535;51.098;6.414;2022-11-15T00:59:51;20.73;;;16.67;;
3050;SDS011;1535;51.098;6.414;2022-11-15T01:02:18;25.70;;;16.80;;
3050;SDS011;1535;51.098;6.414;2022-11-15T01:04:45;23.13;;;17.53;;
3050;SDS011;1535;51.098;6.414;2022-11-15T01:07:15;19.07;;;17.00;;
3050;SDS011;1535;51.098;6.414;2022-11-15T01:09:43;25.90;;;17.00;;
3050;SDS011;1535;51.098;6.414;2022-11-15T01:12:11;19.60;;;16.03;;
3050;SDS011;1535;51.098;6.414;2022-11-15T01:14:37;18.10;;;16.20;;
3050;SDS011;1535;51.098;6.414;2022-11-15T01:17:04;24.73;;;17.10;;
3050;SDS011;1535;51.098;6.414;2022-11-15T01:19:32;19.10;;;16.80;;
3050;SDS011;1535;51.098;6.414;2022-11-15T01:21:58;23.30;;;15.83;;
3050;SDS011;1535;51.098;6.414;2022-11-15T01:24:25;23.10;;;17.20;;
3050;SDS011;1535;51.098;6.414;2022-11-15T01:26:53;17.53;;;15.43;;
3050;SDS011;1535;51.098;6.414;2022-11-15T01:29:21;26.50;;;16.80;;
3050;SDS011;1535;51.098;6.414;2022-11-15T01:31:48;22.23;;;14.80;;
3050;SDS011;1535;51.098;6.414;2022-11-15T01:34:14;21.80;;;16.20;;
3050;SDS011;1535;51.098;6.414;2022-11-15T01:36:41;18.43;;;15.20;;
3050;SDS011;1535;51.098;6.414;2022-11-15T01:39:08;23.73;;;16.10;;
3050;SDS011;1535;51.098;6.414;2022-11-15T01:41:37;16.63;;;15.03;;
3050;SDS011;1535;51.098;6.414;2022-11-15T01:47:10;21.53;;;13.97;;
3050;SDS011;1535;51.098;6.414;2022-11-15T01:49:41;17.27;;;15.40;;
3050;SDS011;1535;51.098;6.414;2022-11-15T01:52:17;29.33;;;16.10;;
3050;SDS011;1535;51.098;6.414;2022-11-15T01:54:47;18.13;;;14.17;;
3050;SDS011;1535;51.098;6.414;2022-11-15T01:57:16;24.73;;;15.50;;
3050;SDS011;1535;51.098;6.414;2022-11-15T01:59:44;19.63;;;14.70;;
3050;SDS011;1535;51.098;6.414;2022-11-15T02:02:14;24.47;;;14.43;;
3050;SDS011;1535;51.098;6.414;2022-11-15T02:04:42;17.47;;;15.60;;
3050;SDS011;1535;51.098;6.414;2022-11-15T02:07:10;20.73;;;14.40;;
3050;SDS011;1535;51.098;6.414;2022-11-15T02:09:38;19.93;;;15.07;;
3050;SDS011;1535;51.098;6.414;2022-11-15T02:12:05;16.37;;;14.00;;
3050;SDS011;1535;51.098;6.414;2022-11-15T02:14:34;17.70;;;14.80;;
3050;SDS011;1535;51.098;6.414;2022-11-15T02:17:08;22.10;;;15.77;;
3050;SDS011;1535;51.098;6.414;2022-11-15T02:19:54;21.10;;;15.20;;
3050;SDS011;1535;51.098;6.414;2022-11-15T02:22:37;18.17;;;14.07;;
3050;SDS011;1535;51.098;6.414;2022-11-15T02:25:33;18.17;;;13.57;;
3050;SDS011;1535;51.098;6.414;2022-11-15T02:28:09;24.53;;;15.20;;
3050;SDS011;1535;51.098;6.414;2022-11-15T02:30:49;15.27;;;13.10;;
3050;SDS011;1535;51.098;6.414;2022-11-15T02:33:26;17.77;;;13.63;;
3050;SDS011;1535;51.098;6.414;2022-11-15T02:35:59;16.57;;;13.17;;
3050;SDS011;1535;51.098;6.414;2022-11-15T02:38:29;23.50;;;13.90;;
3050;SDS011;1535;51.098;6.414;2022-11-15T02:41:02;23.77;;;14.00;;
3050;SDS011;1535;51.098;6.414;2022-11-15T02:43:35;18.57;;;12.57;;
3050;SDS011;1535;51.098;6.414;2022-11-15T02:46:24;17.30;;;12.40;;
3050;SDS011;1535;51.098;6.414;2022-11-15T02:49:10;17.73;;;13.17;;
3050;SDS011;1535;51.098;6.414;2022-11-15T02:51:39;22.80;;;13.30;;
3050;SDS011;1535;51.098;6.414;2022-11-15T02:54:07;23.33;;;14.60;;
3050;SDS011;1535;51.098;6.414;2022-11-15T02:56:36;16.90;;;12.97;;
3050;SDS011;1535;51.098;6.414;2022-11-15T02:59:08;18.53;;;12.37;;
3050;SDS011;1535;51.098;6.414;2022-11-15T03:01:50;23.73;;;14.20;;
3050;SDS011;1535;51.098;6.414;2022-11-15T03:04:29;13.50;;;12.10;;
3050;SDS011;1535;51.098;6.414;2022-11-15T03:07:05;14.70;;;13.20;;
3050;SDS011;1535;51.098;6.414;2022-11-15T03:09:38;19.77;;;12.73;;
3050;SDS011;1535;51.098;6.414;2022-11-15T03:12:10;16.47;;;13.37;;
3050;SDS011;1535;51.098;6.414;2022-11-15T03:14:42;19.27;;;11.83;;
3050;SDS011;1535;51.098;6.414;2022-11-15T03:17:21;14.47;;;12.10;;
3050;SDS011;1535;51.098;6.414;2022-11-15T03:19:53;24.90;;;13.07;;
3050;SDS011;1535;51.098;6.414;2022-11-15T03:22:23;23.17;;;12.97;;
3050;SDS011;1535;51.098;6.414;2022-11-15T03:24:55;15.93;;;13.47;;
3050;SDS011;1535;51.098;6.414;2022-11-15T03:27:26;14.87;;;12.43;;
3050;SDS011;1535;51.098;6.414;2022-11-15T03:29:57;29.10;;;13.20;;
3050;SDS011;1535;51.098;6.414;2022-11-15T03:32:29;19.83;;;13.07;;
3050;SDS011;1535;51.098;6.414;2022-11-15T03:35:00;22.33;;;12.57;;
3050;SDS011;1535;51.098;6.414;2022-11-15T03:37:31;18.87;;;12.93;;
3050;SDS011;1535;51.098;6.414;2022-11-15T03:40:02;19.27;;;13.33;;
3050;SDS011;1535;51.098;6.414;2022-11-15T03:42:30;15.50;;;12.37;;
3050;SDS011;1535;51.098;6.414;2022-11-15T03:45:03;17.87;;;13.00;;
3050;SDS011;1535;51.098;6.414;2022-11-15T03:47:38;21.37;;;12.63;;
3050;SDS011;1535;51.098;6.414;2022-11-15T03:50:08;15.50;;;13.53;;
3050;SDS011;1535;51.098;6.414;2022-11-15T03:52:38;17.37;;;11.80;;
3050;SDS011;1535;51.098;6.414;2022-11-15T03:55:07;21.77;;;13.47;;
3050;SDS011;1535;51.098;6.414;2022-11-15T03:57:36;15.60;;;12.40;;
3050;SDS011;1535;51.098;6.414;2022-11-15T04:00:03;17.13;;;12.60;;
3050;SDS011;1535;51.098;6.414;2022-11-15T04:02:32;19.93;;;12.80;;
3050;SDS011;1535;51.098;6.414;2022-11-15T04:05:00;22.20;;;12.43;;
3050;SDS011;1535;51.098;6.414;2022-11-15T04:07:27;18.37;;;11.97;;
3050;SDS011;1535;51.098;6.414;2022-11-15T04:09:54;15.70;;;12.23;;
3050;SDS011;1535;51.098;6.414;2022-11-15T04:12:30;13.57;;;12.13;;
3050;SDS011;1535;51.098;6.414;2022-11-15T04:15:01;15.27;;;11.93;;
3050;SDS011;1535;51.098;6.414;2022-11-15T04:17:34;13.07;;;11.67;;
3050;SDS011;1535;51.098;6.414;2022-11-15T04:20:07;17.83;;;12.90;;
3050;SDS011;1535;51.098;6.414;2022-11-15T04:22:53;14.03;;;12.53;;
3050;SDS011;1535;51.098;6.414;2022-11-15T04:25:38;17.87;;;11.43;;
3050;SDS011;1535;51.098;6.414;2022-11-15T04:28:05;13.93;;;11.67;;
3050;SDS011;1535;51.098;6.414;2022-11-15T04:30:32;11.80;;;10.70;;
3050;SDS011;1535;51.098;6.414;2022-11-15T04:32:59;12.03;;;10.93;;
3050;SDS011;1535;51.098;6.414;2022-11-15T04:35:28;14.50;;;10.80;;
3050;SDS011;1535;51.098;6.414;2022-11-15T04:37:55;12.40;;;11.40;;
3050;SDS011;1535;51.098;6.414;2022-11-15T04:40:22;13.80;;;10.60;;
3050;SDS011;1535;51.098;6.414;2022-11-15T04:42:49;11.77;;;10.70;;
3050;SDS011;1535;51.098;6.414;2022-11-15T04:45:17;14.07;;;10.93;;
3050;SDS011;1535;51.098;6.414;2022-11-15T04:47:46;14.03;;;10.87;;
3050;SDS011;1535;51.098;6.414;2022-11-15T04:50:15;17.07;;;11.27;;
3050;SDS011;1535;51.098;6.414;2022-11-15T04:52:49;10.77;;;9.90;;
3050;SDS011;1535;51.098;6.414;2022-11-15T04:55:17;13.33;;;10.87;;
3050;SDS011;1535;51.098;6.414;2022-11-15T04:57:44;12.43;;;11.17;;
3050;SDS011;1535;51.098;6.414;2022-11-15T05:00:13;11.90;;;10.90;;
3050;SDS011;1535;51.098;6.414;2022-11-15T05:02:41;11.67;;;10.67;;
3050;SDS011;1535;51.098;6.414;2022-11-15T05:05:25;11.23;;;10.50;;
3050;SDS011;1535;51.098;6.414;2022-11-15T05:07:53;12.27;;;11.00;;
3050;SDS011;1535;51.098;6.414;2022-11-15T05:10:19;11.40;;;10.40;;
3050;SDS011;1535;51.098;6.414;2022-11-15T05:12:46;12.03;;;10.60;;
3050;SDS011;1535;51.098;6.414;2022-11-15T05:15:13;12.50;;;11.30;;
3050;SDS011;1535;51.098;6.414;2022-11-15T05:17:40;10.83;;;10.03;;
3050;SDS011;1535;51.098;6.414;2022-11-15T05:20:07;10.50;;;9.70;;
3050;SDS011;1535;51.098;6.414;2022-11-15T05:22:35;11.97;;;11.07;;
3050;SDS011;1535;51.098;6.414;2022-11-15T05:25:04;12.63;;;11.57;;
3050;SDS011;1535;51.098;6.414;2022-11-15T05:27:31;12.87;;;12.03;;
3050;SDS011;1535;51.098;6.414;2022-11-15T05:30:00;13.67;;;12.67;;
3050;SDS011;1535;51.098;6.414;2022-11-15T05:32:27;14.20;;;13.00;;
3050;SDS011;1535;51.098;6.414;2022-11-15T05:34:54;15.13;;;13.80;;
3050;SDS011;1535;51.098;6.414;2022-11-15T05:37:21;15.40;;;14.10;;
3050;SDS011;1535;51.098;6.414;2022-11-15T05:39:48;13.97;;;12.87;;
3050;SDS011;1535;51.098;6.414;2022-11-15T05:42:17;13.93;;;12.93;;
3050;SDS011;1535;51.098;6.414;2022-11-15T05:44:45;14.93;;;13.67;;
3050;SDS011;1535;51.098;6.414;2022-11-15T05:47:15;14.50;;;13.40;;
3050;SDS011;1535;51.098;6.414;2022-11-15T05:49:45;13.90;;;13.00;;
3050;SDS011;1535;51.098;6.414;2022-11-15T05:52:14;14.20;;;13.27;;
3050;SDS011;1535;51.098;6.414;2022-11-15T05:54:43;17.67;;;15.83;;
3050;SDS011;1535;51.098;6.414;2022-11-15T05:57:10;13.50;;;12.60;;
3050;SDS011;1535;51.098;6.414;2022-11-15T05:59:38;12.43;;;11.60;;
3050;SDS011;1535;51.098;6.414;2022-11-15T06:02:05;12.43;;;11.30;;
3050;SDS011;1535;51.098;6.414;2022-11-15T06:04:33;13.90;;;12.33;;
3050;SDS011;1535;51.098;6.414;2022-11-15T06:06:59;12.60;;;11.60;;
3050;SDS011;1535;51.098;6.414;2022-11-15T06:09:26;11.20;;;10.30;;
3050;SDS011;1535;51.098;6.414;2022-11-15T06:11:53;11.63;;;10.53;;
3050;SDS011;1535;51.098;6.414;2022-11-15T06:14:20;17.27;;;12.93;;
3050;SDS011;1535;51.098;6.414;2022-11-15T06:16:49;18.87;;;15.87;;
3050;SDS011;1535;51.098;6.414;2022-11-15T06:19:16;13.40;;;12.10;;
3050;SDS011;1535;51.098;6.414;2022-11-15T06:21:43;11.90;;;10.70;;
3050;SDS011;1535;51.098;6.414;2022-11-15T06:24:10;12.50;;;10.40;;
3050;SDS011;1535;51.098;6.414;2022-11-15T06:26:37;11.20;;;10.50;;
3050;SDS011;1535;51.098;6.414;2022-11-15T06:29:03;11.27;;;10.43;;
3050;SDS011;1535;51.098;6.414;2022-11-15T06:31:30;11.47;;;9.83;;
3050;SDS011;1535;51.098;6.414;2022-11-15T06:33:58;10.97;;;10.13;;
3050;SDS011;1535;51.098;6.414;2022-11-15T06:36:25;9.20;;;8.60;;
3050;SDS011;1535;51.098;6.414;2022-11-15T06:38:52;9.10;;;8.50;;
3050;SDS011;1535;51.098;6.414;2022-11-15T06:41:20;11.70;;;10.60;;
3050;SDS011;1535;51.098;6.414;2022-11-15T06:43:47;15.57;;;14.50;;
3050;SDS011;1535;51.098;6.414;2022-11-15T06:46:14;16.67;;;15.57;;
3050;SDS011;1535;51.098;6.414;2022-11-15T06:48:40;18.73;;;17.67;;
3050;SDS011;1535;51.098;6.414;2022-11-15T06:51:09;20.13;;;18.93;;
3050;SDS011;1535;51.098;6.414;2022-11-15T06:53:37;20.43;;;19.20;;
3050;SDS011;1535;51.098;6.414;2022-11-15T06:56:04;20.00;;;18.90;;
3050;SDS011;1535;51.098;6.414;2022-11-15T06:58:32;19.63;;;18.43;;
3050;SDS011;1535;51.098;6.414;2022-11-15T07:01:00;20.33;;;19.03;;
3050;SDS011;1535;51.098;6.414;2022-11-15T07:03:28;18.60;;;17.60;;
3050;SDS011;1535;51.098;6.414;2022-11-15T07:05:56;18.03;;;17.03;;
3050;SDS011;1535;51.098;6.414;2022-11-15T07:08:26;17.60;;;16.70;;
3050;SDS011;1535;51.098;6.414;2022-11-15T07:10:54;18.40;;;17.40;;
3050;SDS011;1535;51.098;6.414;2022-11-15T07:13:24;18.00;;;17.10;;
3050;SDS011;1535;51.098;6.414;2022-11-15T07:15:52;18.47;;;17.10;;
3050;SDS011;1535;51.098;6.414;2022-11-15T07:18:18;20.03;;;18.83;;
3050;SDS011;1535;51.098;6.414;2022-11-15T07:20:46;18.40;;;17.30;;
3050;SDS011;1535;51.098;6.414;2022-11-15T07:23:12;18.10;;;17.10;;
3050;SDS011;1535;51.098;6.414;2022-11-15T07:25:41;18.90;;;17.90;;
3050;SDS011;1535;51.098;6.414;2022-11-15T07:28:08;18.60;;;17.67;;
3050;SDS011;1535;51.098;6.414;2022-11-15T07:30:35;18.87;;;17.97;;
3050;SDS011;1535;51.098;6.414;2022-11-15T07:33:02;18.83;;;17.83;;
3050;SDS011;1535;51.098;6.414;2022-11-15T07:35:29;18.40;;;17.40;;
3050;SDS011;1535;51.098;6.414;2022-11-15T07:37:57;19.17;;;18.17;;
3050;SDS011;1535;51.098;6.414;2022-11-15T07:40:25;18.90;;;17.90;;
3050;SDS011;1535;51.098;6.414;2022-11-15T07:42:59;18.00;;;17.10;;
3050;SDS011;1535;51.098;6.414;2022-11-15T07:45:26;17.90;;;17.00;;
3050;SDS011;1535;51.098;6.414;2022-11-15T07:47:53;17.73;;;16.83;;
3050;SDS011;1535;51.098;6.414;2022-11-15T07:50:21;17.80;;;16.90;;
3050;SDS011;1535;51.098;6.414;2022-11-15T07:52:52;17.53;;;16.63;;
3050;SDS011;1535;51.098;6.414;2022-11-15T07:55:21;17.23;;;16.33;;
3050;SDS011;1535;51.098;6.414;2022-11-15T07:57:48;17.37;;;16.47;;
3050;SDS011;1535;51.098;6.414;2022-11-15T08:00:17;17.97;;;16.97;;
3050;SDS011;1535;51.098;6.414;2022-11-15T08:02:44;17.03;;;16.23;;
3050;SDS011;1535;51.098;6.414;2022-11-15T08:05:11;17.30;;;16.30;;
3050;SDS011;1535;51.098;6.414;2022-11-15T08:07:38;17.03;;;16.20;;
3050;SDS011;1535;51.098;6.414;2022-11-15T08:10:07;16.87;;;15.97;;
3050;SDS011;1535;51.098;6.414;2022-11-15T08:12:34;16.70;;;15.80;;
3050;SDS011;1535;51.098;6.414;2022-11-15T08:15:01;17.57;;;16.57;;
3050;SDS011;1535;51.098;6.414;2022-11-15T08:17:29;17.27;;;16.37;;
3050;SDS011;1535;51.098;6.414;2022-11-15T08:19:57;17.67;;;16.77;;
3050;SDS011;1535;51.098;6.414;2022-11-15T08:22:25;17.70;;;16.70;;
3050;SDS011;1535;51.098;6.414;2022-11-15T08:24:52;17.13;;;16.13;;
3050;SDS011;1535;51.098;6.414;2022-11-15T08:27:19;16.50;;;15.60;;
3050;SDS011;1535;51.098;6.414;2022-11-15T08:29:47;17.00;;;16.10;;
3050;SDS011;1535;51.098;6.414;2022-11-15T08:32:14;17.10;;;16.00;;
3050;SDS011;1535;51.098;6.414;2022-11-15T08:34:44;16.40;;;15.50;;
3050;SDS011;1535;51.098;6.414;2022-11-15T08:37:11;16.30;;;15.23;;
3050;SDS011;1535;51.098;6.414;2022-11-15T08:39:38;16.43;;;15.53;;
3050;SDS011;1535;51.098;6.414;2022-11-15T08:42:05;16.50;;;15.60;;
3050;SDS011;1535;51.098;6.414;2022-11-15T08:44:32;16.47;;;14.90;;
3050;SDS011;1535;51.098;6.414;2022-11-15T08:46:59;16.20;;;15.20;;
3050;SDS011;1535;51.098;6.414;2022-11-15T08:49:25;15.40;;;14.40;;
3050;SDS011;1535;51.098;6.414;2022-11-15T08:51:53;15.40;;;14.53;;
3050;SDS011;1535;51.098;6.414;2022-11-15T08:54:21;14.90;;;14.10;;
3050;SDS011;1535;51.098;6.414;2022-11-15T08:56:47;14.17;;;13.40;;
3050;SDS011;1535;51.098;6.414;2022-11-15T08:59:14;14.53;;;13.80;;
3050;SDS011;1535;51.098;6.414;2022-11-15T09:01:41;14.10;;;13.30;;
3050;SDS011;1535;51.098;6.414;2022-11-15T09:04:07;13.40;;;12.70;;
3050;SDS011;1535;51.098;6.414;2022-11-15T09:06:35;14.00;;;13.30;;
3050;SDS011;1535;51.098;6.414;2022-11-15T09:09:03;16.63;;;15.07;;
3050;SDS011;1535;51.098;6.414;2022-11-15T09:11:30;16.23;;;14.60;;
3050;SDS011;1535;51.098;6.414;2022-11-15T09:13:58;11.90;;;11.30;;
3050;SDS011;1535;51.098;6.414;2022-11-15T09:16:25;12.57;;;11.70;;
3050;SDS011;1535;51.098;6.414;2022-11-15T09:18:52;18.30;;;14.40;;
3050;SDS011;1535;51.098;6.414;2022-11-15T09:21:19;13.20;;;12.30;;
3050;SDS011;1535;51.098;6.414;2022-11-15T09:23:49;17.43;;;15.67;;
3050;SDS011;1535;51.098;6.414;2022-11-15T09:26:18;14.07;;;13.13;;
3050;SDS011;1535;51.098;6.414;2022-11-15T09:28:45;14.43;;;13.13;;
3050;SDS011;1535;51.098;6.414;2022-11-15T09:31:12;12.10;;;11.50;;
3050;SDS011;1535;51.098;6.414;2022-11-15T09:33:38;12.90;;;12.03;;
3050;SDS011;1535;51.098;6.414;2022-11-15T09:36:06;15.00;;;13.90;;
3050;SDS011;1535;51.098;6.414;2022-11-15T09:38:34;13.43;;;12.40;;
3050;SDS011;1535;51.098;6.414;2022-11-15T09:41:20;13.80;;;12.70;;
3050;SDS011;1535;51.098;6.414;2022-11-15T09:43:59;14.07;;;13.27;;
3050;SDS011;1535;51.098;6.414;2022-11-15T09:46:38;15.13;;;14.03;;
3050;SDS011;1535;51.098;6.414;2022-11-15T09:49:16;15.97;;;14.87;;
3050;SDS011;1535;51.098;6.414;2022-11-15T09:51:44;18.00;;;16.47;;
3050;SDS011;1535;51.098;6.414;2022-11-15T09:54:16;16.20;;;15.10;;
3050;SDS011;1535;51.098;6.414;2022-11-15T09:56:53;15.40;;;14.20;;
3050;SDS011;1535;51.098;6.414;2022-11-15T09:59:28;15.80;;;14.80;;
3050;SDS011;1535;51.098;6.414;2022-11-15T10:02:17;15.07;;;14.27;;
3050;SDS011;1535;51.098;6.414;2022-11-15T10:04:57;15.90;;;14.80;;
3050;SDS011;1535;51.098;6.414;2022-11-15T10:07:26;15.87;;;14.60;;
3050;SDS011;1535;51.098;6.414;2022-11-15T10:09:59;16.50;;;14.97;;
3050;SDS011;1535;51.098;6.414;2022-11-15T10:12:31;16.60;;;15.50;;
3050;SDS011;1535;51.098;6.414;2022-11-15T10:15:00;15.93;;;14.93;;
3050;SDS011;1535;51.098;6.414;2022-11-15T10:17:34;17.17;;;14.47;;
3050;SDS011;1535;51.098;6.414;2022-11-15T10:20:22;20.40;;;15.70;;
3050;SDS011;1535;51.098;6.414;2022-11-15T10:22:52;16.90;;;14.97;;
3050;SDS011;1535;51.098;6.414;2022-11-15T10:25:22;15.77;;;14.87;;
3050;SDS011;1535;51.098;6.414;2022-11-15T10:27:56;16.40;;;15.03;;
3050;SDS011;1535;51.098;6.414;2022-11-15T10:30:29;15.33;;;14.43;;
3050;SDS011;1535;51.098;6.414;2022-11-15T10:32:59;25.60;;;15.00;;
3050;SDS011;1535;51.098;6.414;2022-11-15T10:35:37;16.60;;;14.93;;
3050;SDS011;1535;51.098;6.414;2022-11-15T10:38:05;16.17;;;14.93;;
3050;SDS011;1535;51.098;6.414;2022-11-15T10:40:33;16.50;;;15.40;;
3050;SDS011;1535;51.098;6.414;2022-11-15T10:43:06;17.37;;;16.27;;
3050;SDS011;1535;51.098;6.414;2022-11-15T10:45:41;17.27;;;16.17;;
3050;SDS011;1535;51.098;6.414;2022-11-15T10:50:53;16.67;;;15.80;;
3050;SDS011;1535;51.098;6.414;2022-11-15T10:53:22;17.13;;;16.00;;
3050;SDS011;1535;51.098;6.414;2022-11-15T10:55:53;16.63;;;15.63;;
3050;SDS011;1535;51.098;6.414;2022-11-15T10:58:27;16.70;;;15.80;;
3050;SDS011;1535;51.098;6.414;2022-11-15T11:01:05;16.60;;;15.40;;
3050;SDS011;1535;51.098;6.414;2022-11-15T11:03:37;16.70;;;15.50;;
3050;SDS011;1535;51.098;6.414;2022-11-15T11:06:06;17.03;;;15.93;;
3050;SDS011;1535;51.098;6.414;2022-11-15T11:08:35;17.00;;;16.00;;
3050;SDS011;1535;51.098;6.414;2022-11-15T11:11:03;16.93;;;15.80;;
3050;SDS011;1535;51.098;6.414;2022-11-15T11:13:33;17.17;;;16.10;;
3050;SDS011;1535;51.098;6.414;2022-11-15T11:16:09;16.70;;;15.70;;
3050;SDS011;1535;51.098;6.414;2022-11-15T11:19:01;15.57;;;14.80;;
3050;SDS011;1535;51.098;6.414;2022-11-15T11:21:38;16.20;;;15.30;;
3050;SDS011;1535;51.098;6.414;2022-11-15T11:24:14;16.60;;;15.60;;
3050;SDS011;1535;51.098;6.414;2022-11-15T11:26:54;19.10;;;17.63;;
3050;SDS011;1535;51.098;6.414;2022-11-15T11:29:33;15.97;;;15.07;;
3050;SDS011;1535;51.098;6.414;2022-11-15T11:32:16;16.07;;;15.27;;
3050;SDS011;1535;51.098;6.414;2022-11-15T11:34:54;19.10;;;17.77;;
3050;SDS011;1535;51.098;6.414;2022-11-15T11:37:29;17.00;;;16.00;;
3050;SDS011;1535;51.098;6.414;2022-11-15T11:40:07;16.70;;;15.87;;
3050;SDS011;1535;51.098;6.414;2022-11-15T11:42:43;15.80;;;15.00;;
3050;SDS011;1535;51.098;6.414;2022-11-15T11:45:26;17.07;;;15.80;;
3050;SDS011;1535;51.098;6.414;2022-11-15T11:48:18;18.03;;;16.93;;
3050;SDS011;1535;51.098;6.414;2022-11-15T11:50:53;16.73;;;15.93;;
3050;SDS011;1535;51.098;6.414;2022-11-15T11:53:27;16.73;;;15.60;;
3050;SDS011;1535;51.098;6.414;2022-11-15T11:55:57;16.93;;;15.93;;
3050;SDS011;1535;51.098;6.414;2022-11-15T11:58:29;16.40;;;15.40;;
3050;SDS011;1535;51.098;6.414;2022-11-15T12:01:11;18.20;;;17.10;;
3050;SDS011;1535;51.098;6.414;2022-11-15T12:03:44;16.27;;;15.13;;
3050;SDS011;1535;51.098;6.414;2022-11-15T12:06:16;16.40;;;15.50;;
3050;SDS011;1535;51.098;6.414;2022-11-15T12:08:50;16.97;;;15.87;;
3050;SDS011;1535;51.098;6.414;2022-11-15T12:11:20;17.47;;;16.17;;
3050;SDS011;1535;51.098;6.414;2022-11-15T12:13:53;16.80;;;15.80;;
3050;SDS011;1535;51.098;6.414;2022-11-15T12:16:26;16.93;;;16.03;;
3050;SDS011;1535;51.098;6.414;2022-11-15T12:18:54;16.77;;;15.63;;
3050;SDS011;1535;51.098;6.414;2022-11-15T12:21:27;17.03;;;16.00;;
3050;SDS011;1535;51.098;6.414;2022-11-15T12:24:01;16.20;;;15.20;;
3050;SDS011;1535;51.098;6.414;2022-11-15T12:26:33;20.63;;;19.00;;
3050;SDS011;1535;51.098;6.414;2022-11-15T12:29:04;16.60;;;15.37;;
3050;SDS011;1535;51.098;6.414;2022-11-15T12:31:38;19.87;;;16.10;;
3050;SDS011;1535;51.098;6.414;2022-11-15T12:34:15;17.77;;;16.40;;
3050;SDS011;1535;51.098;6.414;2022-11-15T12:40:14;19.43;;;16.20;;
3050;SDS011;1535;51.098;6.414;2022-11-15T12:42:56;20.97;;;16.57;;
3050;SDS011;1535;51.098;6.414;2022-11-15T12:45:25;17.30;;;15.90;;
3050;SDS011;1535;51.098;6.414;2022-11-15T12:48:20;17.90;;;16.07;;
3050;SDS011;1535;51.098;6.414;2022-11-15T12:51:02;17.23;;;16.13;;
3050;SDS011;1535;51.098;6.414;2022-11-15T12:53:30;18.30;;;16.63;;
3050;SDS011;1535;51.098;6.414;2022-11-15T12:58:46;17.27;;;16.00;;
3050;SDS011;1535;51.098;6.414;2022-11-15T13:04:25;18.33;;;16.50;;
3050;SDS011;1535;51.098;6.414;2022-11-15T13:06:55;17.27;;;15.67;;
3050;SDS011;1535;51.098;6.414;2022-11-15T13:15:33;18.27;;;16.50;;
3050;SDS011;1535;51.098;6.414;2022-11-15T13:21:03;17.40;;;15.80;;
3050;SDS011;1535;51.098;6.414;2022-11-15T13:23:51;18.20;;;16.60;;
3050;SDS011;1535;51.098;6.414;2022-11-15T13:26:19;26.93;;;16.70;;
3050;SDS011;1535;51.098;6.414;2022-11-15T13:28:47;16.40;;;15.50;;
3050;SDS011;1535;51.098;6.414;2022-11-15T13:31:28;17.50;;;15.67;;
3050;SDS011;1535;51.098;6.414;2022-11-15T13:34:14;18.00;;;16.20;;
3050;SDS011;1535;51.098;6.414;2022-11-15T13:36:54;17.13;;;15.60;;
3050;SDS011;1535;51.098;6.414;2022-11-15T13:39:26;17.80;;;16.00;;
3050;SDS011;1535;51.098;6.414;2022-11-15T13:41:54;22.23;;;17.03;;
3050;SDS011;1535;51.098;6.414;2022-11-15T13:44:23;19.10;;;16.97;;
3050;SDS011;1535;51.098;6.414;2022-11-15T13:47:00;18.00;;;16.30;;
3050;SDS011;1535;51.098;6.414;2022-11-15T13:49:30;22.07;;;15.33;;
3050;SDS011;1535;51.098;6.414;2022-11-15T13:51:59;17.17;;;15.73;;
3050;SDS011;1535;51.098;6.414;2022-11-15T13:54:29;17.40;;;15.70;;
3050;SDS011;1535;51.098;6.414;2022-11-15T13:57:00;22.37;;;15.70;;
3050;SDS011;1535;51.098;6.414;2022-11-15T13:59:30;17.70;;;15.53;;
3050;SDS011;1535;51.098;6.414;2022-11-15T14:01:59;20.77;;;15.60;;
3050;SDS011;1535;51.098;6.414;2022-11-15T14:04:29;17.90;;;16.20;;
3050;SDS011;1535;51.098;6.414;2022-11-15T14:07:00;17.40;;;15.17;;
3050;SDS011;1535;51.098;6.414;2022-11-15T14:09:29;17.30;;;15.80;;
3050;SDS011;1535;51.098;6.414;2022-11-15T14:12:02;18.17;;;15.50;;
3050;SDS011;1535;51.098;6.414;2022-11-15T14:14:45;26.50;;;16.30;;
3050;SDS011;1535;51.098;6.414;2022-11-15T14:17:19;19.30;;;16.13;;
3050;SDS011;1535;51.098;6.414;2022-11-15T14:19:48;19.33;;;16.80;;
3050;SDS011;1535;51.098;6.414;2022-11-15T14:22:19;18.23;;;16.47;;
3050;SDS011;1535;51.098;6.414;2022-11-15T14:25:03;17.67;;;15.90;;
3050;SDS011;1535;51.098;6.414;2022-11-15T14:27:33;27.63;;;16.33;;
3050;SDS011;1535;51.098;6.414;2022-11-15T14:30:00;17.80;;;15.90;;
3050;SDS011;1535;51.098;6.414;2022-11-15T14:32:27;20.53;;;15.73;;
3050;SDS011;1535;51.098;6.414;2022-11-15T14:34:56;27.67;;;17.20;;
3050;SDS011;1535;51.098;6.414;2022-11-15T14:37:25;41.30;;;16.73;;
3050;SDS011;1535;51.098;6.414;2022-11-15T14:39:54;29.03;;;15.57;;
3050;SDS011;1535;51.098;6.414;2022-11-15T14:42:24;20.33;;;15.70;;
3050;SDS011;1535;51.098;6.414;2022-11-15T14:44:51;24.13;;;15.70;;
3050;SDS011;1535;51.098;6.414;2022-11-15T14:47:18;26.03;;;15.90;;
3050;SDS011;1535;51.098;6.414;2022-11-15T14:49:45;17.60;;;15.97;;
3050;SDS011;1535;51.098;6.414;2022-11-15T14:52:25;16.50;;;15.20;;
3050;SDS011;1535;51.098;6.414;2022-11-15T14:54:54;21.47;;;16.17;;
3050;SDS011;1535;51.098;6.414;2022-11-15T14:57:23;17.13;;;15.20;;
3050;SDS011;1535;51.098;6.414;2022-11-15T14:59:49;23.70;;;15.27;;
3050;SDS011;1535;51.098;6.414;2022-11-15T15:02:17;16.00;;;14.73;;
3050;SDS011;1535;51.098;6.414;2022-11-15T15:04:46;16.53;;;15.40;;
3050;SDS011;1535;51.098;6.414;2022-11-15T15:07:13;17.07;;;15.07;;
3050;SDS011;1535;51.098;6.414;2022-11-15T15:09:41;16.20;;;14.97;;
3050;SDS011;1535;51.098;6.414;2022-11-15T15:12:12;17.00;;;15.47;;
3050;SDS011;1535;51.098;6.414;2022-11-15T15:14:42;17.73;;;15.70;;
3050;SDS011;1535;51.098;6.414;2022-11-15T15:17:10;17.47;;;15.63;;
3050;SDS011;1535;51.098;6.414;2022-11-15T15:19:37;18.90;;;15.33;;
3050;SDS011;1535;51.098;6.414;2022-11-15T15:22:04;16.93;;;15.40;;
3050;SDS011;1535;51.098;6.414;2022-11-15T15:24:32;19.53;;;16.20;;
3050;SDS011;1535;51.098;6.414;2022-11-15T15:27:00;17.03;;;15.73;;
3050;SDS011;1535;51.098;6.414;2022-11-15T15:29:27;22.50;;;15.33;;
3050;SDS011;1535;51.098;6.414;2022-11-15T15:31:55;16.97;;;15.43;;